Time;durP1;ratioP1;P1;durP2;ratioP2;P2;SDS_P1;SDS_P2;PMS_P1;PMS_P2;Temp;Humidity;BMP_temperature;BMP_pressure;BME280_temperature;BME280_humidity;BME280_pressure;Samples;Min_cycle;Max_cycle;Signal;HPM_P1;HPM_P2
2022/02/20 00:01:51;;;;;;;1999.90;999.90;;;4.50;99.90;;;;;;6143129;23;20571;-79
2022/02/20 00:04:21;;;;;;;1999.90;764.33;;;4.50;99.90;;;;;;6115392;23;20393;-79
2022/02/20 00:06:56;;;;;;;1999.90;999.90;;;4.50;99.90;;;;;;6114524;23;20417;-79
2022/02/20 00:13:42;;;;;;;1999.90;452.57;;;4.50;99.90;;;;;;5880154;24;20449;-79
2022/02/20 00:16:26;;;;;;;1999.90;999.90;;;4.50;99.90;;;;;;5902850;24;20432;-79
2022/02/20 00:18:54;;;;;;;1715.63;437.20;;;4.50;99.90;;;;;;5995484;24;20458;-79
2022/02/20 00:21:24;;;;;;;1999.90;733.87;;;4.50;99.90;;;;;;6003825;24;20461;-79
2022/02/20 00:23:57;;;;;;;1999.90;999.90;;;4.50;99.90;;;;;;5995748;24;20460;-79
2022/02/20 00:26:26;;;;;;;1999.90;999.90;;;4.50;99.90;;;;;;5971697;24;20421;-79
2022/02/20 00:29:03;;;;;;;1777.53;720.47;;;4.50;99.90;;;;;;6025891;23;20424;-79
2022/02/20 00:31:35;;;;;;;1999.90;999.90;;;4.60;99.90;;;;;;6115467;23;20449;-79
2022/02/20 00:34:21;;;;;;;1999.90;999.90;;;4.60;99.90;;;;;;6116135;23;20416;-79
2022/02/20 00:36:51;;;;;;;1999.90;798.93;;;4.60;99.90;;;;;;6115985;23;20481;-79
2022/02/20 00:39:28;;;;;;;1999.90;999.90;;;4.60;99.90;;;;;;6141914;23;20405;-79
2022/02/20 00:42:00;;;;;;;1999.90;999.90;;;4.50;99.90;;;;;;6115965;23;20446;-79
2022/02/20 00:44:30;;;;;;;11.48;10.48;;;4.60;99.90;;;;;;6113862;23;20421;-79
2022/02/20 00:46:59;;;;;;;240.97;33.23;;;4.70;99.90;;;;;;6114194;23;20178;-79
2022/02/20 00:49:34;;;;;;;1983.20;457.77;;;4.70;99.90;;;;;;6110451;23;20412;-79
2022/02/20 00:52:03;;;;;;;1999.90;578.10;;;4.70;99.90;;;;;;6111183;23;20447;-79
2022/02/20 00:54:44;;;;;;;1999.90;595.43;;;4.70;99.90;;;;;;6112872;23;20417;-79
2022/02/20 00:57:20;;;;;;;1999.90;999.90;;;4.70;99.90;;;;;;6113443;23;20413;-79
2022/02/20 00:59:54;;;;;;;1999.90;999.90;;;4.70;99.90;;;;;;6113186;23;20757;-79
2022/02/20 01:02:22;;;;;;;1999.90;999.90;;;4.70;99.90;;;;;;6113791;23;20472;-79
2022/02/20 01:04:52;;;;;;;1999.90;999.90;;;4.70;99.90;;;;;;6113349;23;20406;-79
2022/02/20 01:07:22;;;;;;;1999.90;727.80;;;4.70;99.90;;;;;;6113485;23;20417;-79
2022/02/20 01:10:02;;;;;;;1999.90;620.10;;;4.70;99.90;;;;;;6113068;23;20487;-79
2022/02/20 01:12:31;;;;;;;1999.90;999.90;;;4.70;99.90;;;;;;6113893;23;20460;-79
2022/02/20 01:15:00;;;;;;;1999.90;691.67;;;4.70;99.90;;;;;;6112696;23;20421;-79
2022/02/20 01:17:28;;;;;;;1999.90;999.90;;;4.70;99.90;;;;;;6112526;23;20468;-79
2022/02/20 01:19:58;;;;;;;1999.90;999.90;;;4.70;99.90;;;;;;6111970;23;20445;-79
2022/02/20 01:22:30;;;;;;;1999.90;999.90;;;4.70;99.90;;;;;;6113081;23;20410;-79
2022/02/20 01:25:04;;;;;;;1999.90;627.70;;;4.70;99.90;;;;;;6112596;23;20417;-79
2022/02/20 01:27:35;;;;;;;1999.90;824.93;;;4.70;99.90;;;;;;6149616;23;20389;-79
2022/02/20 01:30:05;;;;;;;1999.90;645.83;;;4.70;99.90;;;;;;6113201;23;20417;-79
2022/02/20 01:32:36;;;;;;;1999.90;784.10;;;4.70;99.90;;;;;;6149194;23;20393;-79
2022/02/20 01:35:09;;;;;;;1999.90;999.90;;;4.70;99.90;;;;;;6113392;23;20416;-79
2022/02/20 01:37:38;;;;;;;1999.90;999.90;;;4.70;99.90;;;;;;6114279;23;20421;-79
2022/02/20 01:40:10;;;;;;;1999.90;609.30;;;4.70;99.90;;;;;;6112795;23;20496;-79
2022/02/20 01:42:38;;;;;;;1999.90;999.90;;;4.70;99.90;;;;;;6112381;23;20976;-79
2022/02/20 01:45:12;;;;;;;1999.90;538.13;;;4.70;99.90;;;;;;6111561;23;20449;-79
2022/02/20 01:47:41;;;;;;;1999.90;999.90;;;4.70;99.90;;;;;;6112066;23;20877;-79
2022/02/20 01:50:10;;;;;;;1999.90;636.40;;;4.70;99.90;;;;;;6112036;23;20805;-79
2022/02/20 01:52:40;;;;;;;1999.90;687.13;;;4.70;99.90;;;;;;6147695;23;20378;-79
2022/02/20 01:55:15;;;;;;;1999.90;609.53;;;4.70;99.90;;;;;;6111322;23;20893;-79
2022/02/20 02:02:37;;;;;;;1999.90;486.67;;;4.70;99.90;;;;;;5960525;23;20477;-79
2022/02/20 02:05:21;;;;;;;1999.90;944.90;;;4.70;99.90;;;;;;5997482;23;20798;-79
2022/02/20 02:07:51;;;;;;;1999.90;845.27;;;4.70;99.90;;;;;;6044304;23;20935;-80
2022/02/20 02:10:33;;;;;;;1999.90;999.90;;;4.70;99.90;;;;;;5997167;23;20447;-79
2022/02/20 02:13:01;;;;;;;1999.90;683.57;;;4.70;99.90;;;;;;6029714;23;20501;-79
2022/02/20 02:15:48;;;;;;;1999.90;740.77;;;4.60;99.90;;;;;;6162144;23;20413;-79
2022/02/20 02:18:40;;;;;;;1999.90;999.90;;;4.70;99.90;;;;;;6111753;23;20442;-79
2022/02/20 02:21:37;;;;;;;1999.90;999.90;;;4.70;99.90;;;;;;6137222;23;20445;-79
2022/02/20 02:24:17;;;;;;;1999.90;876.53;;;4.70;99.90;;;;;;6108305;23;20516;-79
2022/02/20 02:27:04;;;;;;;1999.90;699.17;;;4.70;99.90;;;;;;6107916;23;20417;-79
2022/02/20 02:30:03;;;;;;;1999.90;999.90;;;4.70;99.90;;;;;;6041263;23;20409;-79
2022/02/20 02:32:32;;;;;;;1999.90;836.13;;;4.70;99.90;;;;;;6110009;23;20907;-79
2022/02/20 02:35:00;;;;;;;1999.90;508.93;;;4.70;99.90;;;;;;6110481;23;20428;-79
2022/02/20 02:37:30;;;;;;;1999.90;674.43;;;4.70;99.90;;;;;;6111962;23;20420;-79
2022/02/20 02:40:00;;;;;;;1999.90;802.83;;;4.70;99.90;;;;;;6112299;23;20908;-79
2022/02/20 02:42:29;;;;;;;1999.90;828.17;;;4.70;99.90;;;;;;6111762;23;20413;-79
2022/02/20 02:44:57;;;;;;;1999.90;704.63;;;4.60;99.90;;;;;;6111601;23;20521;-79
2022/02/20 02:55:50;;;;;;;1873.67;140.60;;;4.60;99.90;;;;;;5842669;24;20972;-80
2022/02/20 02:58:20;;;;;;;1813.30;703.20;;;4.60;99.90;;;;;;5986700;24;20483;-79
2022/02/20 03:00:52;;;;;;;1999.90;999.90;;;4.60;99.90;;;;;;6021364;23;20533;-79
2022/02/20 03:05:57;;;;;;;1999.90;999.90;;;4.60;99.90;;;;;;6074090;23;20419;-78
2022/02/20 03:08:28;;;;;;;1999.90;658.13;;;4.60;99.90;;;;;;6073597;23;20418;-79
2022/02/20 03:11:00;;;;;;;1999.90;720.00;;;4.50;99.90;;;;;;6050375;23;20446;-79
2022/02/20 03:13:28;;;;;;;1999.90;999.90;;;4.60;99.90;;;;;;6052393;23;20506;-79
2022/02/20 03:15:59;;;;;;;1999.90;819.77;;;4.60;99.90;;;;;;6074830;23;20400;-79
2022/02/20 03:18:35;;;;;;;1999.90;999.90;;;4.60;99.90;;;;;;6049825;23;20482;-78
2022/02/20 03:21:08;;;;;;;1999.90;738.33;;;4.50;99.90;;;;;;6075782;23;20447;-79
2022/02/20 03:23:37;;;;;;;1999.90;666.53;;;4.60;99.90;;;;;;6050797;23;20498;-79
2022/02/20 03:26:12;;;;;;;1999.90;767.17;;;4.60;99.90;;;;;;6050614;23;20426;-79
2022/02/20 03:28:41;;;;;;;1999.90;414.53;;;4.60;99.90;;;;;;6050842;23;20838;-78
2022/02/20 03:31:10;;;;;;;1999.90;616.93;;;4.60;99.90;;;;;;6049747;23;20435;-79
2022/02/20 03:33:40;;;;;;;1999.90;515.37;;;4.60;99.90;;;;;;6050317;23;20414;-79
2022/02/20 03:36:08;;;;;;;1999.90;776.60;;;4.50;99.90;;;;;;6073210;23;20534;-79
2022/02/20 03:38:37;;;;;;;1999.90;706.20;;;4.50;99.90;;;;;;6049103;23;20419;-78
2022/02/20 03:41:06;;;;;;;1999.90;625.43;;;4.50;99.90;;;;;;6072704;23;20828;-78
2022/02/20 03:43:42;;;;;;;1999.90;360.83;;;4.50;99.90;;;;;;6074843;23;20412;-79
2022/02/20 03:46:13;;;;;;;1999.90;546.23;;;4.50;99.90;;;;;;6073348;23;20425;-78
2022/02/20 03:48:59;;;;;;;1774.77;472.17;;;4.50;99.90;;;;;;6072446;23;20460;-79
2022/02/20 03:52:05;;;;;;;1999.90;811.63;;;4.50;99.90;;;;;;5996286;24;20463;-79
2022/02/20 03:54:45;;;;;;;1999.90;999.90;;;4.50;99.90;;;;;;5988701;24;20410;-79
2022/02/20 03:57:15;;;;;;;1999.90;999.90;;;4.40;99.90;;;;;;6025578;23;20611;-79
2022/02/20 04:00:07;;;;;;;1999.90;999.90;;;4.60;99.90;;;;;;6072398;23;20426;-79
2022/02/20 04:02:43;;;;;;;1999.90;999.90;;;4.50;99.90;;;;;;6071099;23;20406;-78
2022/02/20 04:05:17;;;;;;;1999.90;999.90;;;4.50;99.90;;;;;;6047139;23;20439;-78
2022/02/20 04:07:46;;;;;;;1999.90;829.33;;;4.50;99.90;;;;;;6072387;23;20415;-78
2022/02/20 04:10:16;;;;;;;1976.97;732.43;;;4.50;99.90;;;;;;6048071;23;20457;-78
2022/02/20 04:12:48;;;;;;;1999.90;999.90;;;4.50;99.90;;;;;;6070460;23;20906;-78
2022/02/20 04:15:17;;;;;;;1870.73;203.90;;;4.40;99.90;;;;;;6046032;23;20478;-78
2022/02/20 04:17:54;;;;;;;1999.90;525.50;;;4.50;99.90;;;;;;6071275;23;20523;-78
2022/02/20 04:20:23;;;;;;;1992.97;467.30;;;4.40;99.90;;;;;;6058860;23;20445;-78
2022/02/20 04:22:53;;;;;;;1942.67;713.37;;;4.40;99.90;;;;;;6105749;23;20504;-78
2022/02/20 04:25:28;;;;;;;1922.53;713.67;;;4.40;99.90;;;;;;6105703;23;20467;-78
2022/02/20 04:28:02;;;;;;;1999.90;999.90;;;4.40;99.90;;;;;;6106490;23;20416;-78
2022/02/20 04:30:31;;;;;;;1986.97;455.97;;;4.40;99.90;;;;;;6107545;23;20554;-78
2022/02/20 04:33:04;;;;;;;1999.90;999.90;;;4.40;99.90;;;;;;6107186;23;20419;-78
2022/02/20 04:35:36;;;;;;;1999.90;322.17;;;4.40;99.90;;;;;;6108265;23;20457;-78
2022/02/20 04:38:07;;;;;;;1900.57;161.70;;;4.40;99.90;;;;;;6107322;23;20421;-78
2022/02/20 04:40:37;;;;;;;1999.90;999.90;;;4.30;99.90;;;;;;6106824;23;20610;-78
2022/02/20 04:43:14;;;;;;;1999.90;487.47;;;4.30;99.90;;;;;;6107725;23;20420;-78
2022/02/20 04:45:44;;;;;;;1999.90;285.80;;;4.30;99.90;;;;;;6109085;23;20441;-78
2022/02/20 04:48:18;;;;;;;1999.90;999.90;;;4.20;99.90;;;;;;6110272;23;20413;-78
2022/02/20 04:50:47;;;;;;;1999.90;564.30;;;4.20;99.90;;;;;;6109700;23;20456;-78
2022/02/20 04:53:18;;;;;;;1999.90;999.90;;;4.20;99.90;;;;;;6110135;23;20439;-78
2022/02/20 04:55:49;;;;;;;1999.90;348.77;;;4.20;99.90;;;;;;6109717;23;20539;-78
2022/02/20 04:58:20;;;;;;;1999.90;788.03;;;4.20;99.90;;;;;;6107475;23;20421;-78
2022/02/20 05:00:48;;;;;;;1999.90;442.17;;;4.10;99.90;;;;;;6120935;23;20521;-78
2022/02/20 05:03:40;;;;;;;1999.90;722.07;;;4.10;99.90;;;;;;6159187;23;20420;-78
2022/02/20 05:06:08;;;;;;;1972.37;165.60;;;4.10;99.90;;;;;;6172509;23;20450;-78
2022/02/20 05:08:45;;;;;;;1999.90;999.90;;;4.10;99.90;;;;;;6136787;23;20407;-78
2022/02/20 05:11:21;;;;;;;1999.90;805.63;;;4.00;99.90;;;;;;6136538;23;20469;-78
2022/02/20 05:13:58;;;;;;;1999.90;387.77;;;4.00;99.90;;;;;;6137542;23;20411;-78
2022/02/20 05:16:29;;;;;;;1999.90;999.90;;;4.00;99.90;;;;;;6136819;23;20907;-78
2022/02/20 05:18:58;;;;;;;1999.90;820.43;;;4.00;99.90;;;;;;6137311;23;20419;-78
2022/02/20 05:21:28;;;;;;;1999.90;278.20;;;3.90;99.90;;;;;;6136192;23;20490;-78
2022/02/20 05:24:01;;;;;;;1999.90;730.87;;;3.90;99.90;;;;;;6136324;23;20424;-78
2022/02/20 05:26:32;;;;;;;1999.90;999.90;;;3.90;99.90;;;;;;6135563;23;20470;-78
2022/02/20 05:29:08;;;;;;;1999.90;342.23;;;3.90;99.90;;;;;;6136906;23;20419;-78
2022/02/20 05:31:36;;;;;;;1999.90;728.67;;;3.90;99.90;;;;;;6136360;23;20452;-78
2022/02/20 05:34:11;;;;;;;1999.90;470.77;;;3.90;99.90;;;;;;6136411;23;20502;-79
2022/02/20 05:36:46;;;;;;;1999.90;528.83;;;3.80;99.90;;;;;;6136495;23;20737;-78
2022/02/20 05:39:26;;;;;;;1999.90;488.77;;;3.80;99.90;;;;;;6136209;23;20491;-78
2022/02/20 05:42:01;;;;;;;1999.90;510.07;;;3.80;99.90;;;;;;6135175;23;20473;-78
2022/02/20 05:44:31;;;;;;;1950.13;455.87;;;3.80;99.90;;;;;;6133887;23;21002;-78
2022/02/20 05:47:02;;;;;;;1999.90;431.90;;;3.80;99.90;;;;;;6134098;23;20827;-78
2022/02/20 05:49:34;;;;;;;1999.90;767.37;;;3.80;99.90;;;;;;6134898;23;20431;-78
2022/02/20 05:52:03;;;;;;;1999.90;440.20;;;3.80;99.90;;;;;;6135095;23;20833;-78
2022/02/20 05:54:40;;;;;;;1999.90;627.67;;;3.80;99.90;;;;;;6135556;23;20725;-78
2022/02/20 05:57:09;;;;;;;1999.90;413.43;;;3.80;99.90;;;;;;6135563;23;20475;-78
2022/02/20 05:59:44;;;;;;;1999.90;380.03;;;3.80;99.90;;;;;;6135342;23;20405;-78
2022/02/20 06:02:15;;;;;;;1999.90;317.47;;;3.80;99.90;;;;;;6106225;23;20477;-78
2022/02/20 06:04:43;;;;;;;1999.90;438.90;;;3.80;99.90;;;;;;6107074;23;20757;-78
2022/02/20 06:07:30;;;;;;;1999.90;387.33;;;3.80;99.90;;;;;;6142029;23;20391;-78
2022/02/20 06:10:23;;;;;;;1803.47;183.50;;;3.80;99.90;;;;;;6131778;23;20419;-78
2022/02/20 06:13:20;;;;;;;1999.90;342.80;;;3.80;99.90;;;;;;6097866;23;20415;-78
2022/02/20 06:16:22;;;;;;;1999.90;457.17;;;3.80;99.90;;;;;;6092671;23;20409;-78
2022/02/20 06:18:59;;;;;;;1999.90;619.17;;;3.80;99.90;;;;;;6108178;23;20413;-78
2022/02/20 06:21:46;;;;;;;1999.90;503.80;;;3.80;99.90;;;;;;6143192;23;20511;-79
2022/02/20 06:24:17;;;;;;;1999.90;368.30;;;3.80;99.90;;;;;;6106736;23;20417;-78
2022/02/20 06:27:06;;;;;;;1999.90;375.30;;;3.80;99.90;;;;;;6129681;23;20441;-78
2022/02/20 06:29:35;;;;;;;1999.90;672.50;;;3.80;99.90;;;;;;6104617;23;20905;-78
2022/02/20 06:32:06;;;;;;;1999.90;999.90;;;3.80;99.90;;;;;;6105256;23;20934;-78
2022/02/20 06:34:36;;;;;;;1405.87;405.97;;;3.80;99.90;;;;;;6105257;23;20468;-78
2022/02/20 06:37:04;;;;;;;1999.90;579.70;;;3.80;99.90;;;;;;6105369;23;20422;-78
2022/02/20 06:39:35;;;;;;;1720.33;437.23;;;3.90;99.90;;;;;;6106392;23;20419;-78
2022/02/20 06:42:05;;;;;;;1999.90;594.73;;;3.90;99.90;;;;;;6105397;23;20477;-78
2022/02/20 06:44:34;;;;;;;1999.90;999.90;;;3.90;99.90;;;;;;6105812;23;20413;-78
2022/02/20 06:47:30;;;;;;;1999.90;465.33;;;3.90;99.90;;;;;;6141818;23;20434;-79
2022/02/20 06:50:33;;;;;;;1999.90;494.23;;;3.90;99.90;;;;;;6052258;23;20428;-78
2022/02/20 06:53:40;;;;;;;1999.90;341.63;;;3.90;99.90;;;;;;6109550;23;20832;-78
2022/02/20 06:56:17;;;;;;;1999.90;347.57;;;3.90;99.90;;;;;;6076825;23;20417;-78
2022/02/20 06:58:50;;;;;;;1999.90;417.37;;;3.90;99.90;;;;;;6093315;23;20422;-79
2022/02/20 07:01:18;;;;;;;1999.90;999.90;;;3.90;99.90;;;;;;6125551;23;20448;-78
2022/02/20 07:03:48;;;;;;;1999.90;709.40;;;3.90;99.90;;;;;;6163552;23;20708;-78
2022/02/20 07:06:16;;;;;;;1999.90;209.10;;;3.90;99.90;;;;;;6136269;23;21048;-78
2022/02/20 07:08:50;;;;;;;1999.90;269.97;;;3.90;99.90;;;;;;6136128;23;20430;-78
2022/02/20 07:11:24;;;;;;;1999.90;261.23;;;3.90;99.90;;;;;;6135206;23;20443;-78
2022/02/20 07:13:52;;;;;;;1999.90;244.73;;;3.90;99.90;;;;;;6161356;23;20468;-78
2022/02/20 07:16:23;;;;;;;1999.90;307.47;;;3.90;99.90;;;;;;6161494;23;20432;-78
2022/02/20 07:18:55;;;;;;;1999.90;494.53;;;3.90;99.90;;;;;;6161409;23;20394;-78
2022/02/20 07:21:26;;;;;;;1999.90;999.90;;;3.90;99.90;;;;;;6135343;23;20527;-78
2022/02/20 07:23:54;;;;;;;1999.90;999.90;;;4.00;99.90;;;;;;6162053;23;20951;-78
2022/02/20 07:26:23;;;;;;;1999.90;999.90;;;4.00;99.90;;;;;;6134609;23;20445;-78
2022/02/20 07:28:51;;;;;;;1999.90;999.90;;;4.00;99.90;;;;;;6135537;23;20443;-78
2022/02/20 07:31:19;;;;;;;1727.97;708.67;;;4.00;99.90;;;;;;6134958;23;20936;-78
2022/02/20 07:33:52;;;;;;;1999.90;999.90;;;4.00;99.90;;;;;;6135588;23;20416;-78
2022/02/20 07:36:24;;;;;;;1999.90;999.90;;;4.00;99.90;;;;;;6162098;23;20412;-78
2022/02/20 07:38:53;;;;;;;1999.90;999.90;;;4.10;99.90;;;;;;6161498;23;20467;-78
2022/02/20 07:41:21;;;;;;;1999.90;719.33;;;4.10;99.90;;;;;;6134974;23;20440;-78
2022/02/20 07:43:50;;;;;;;1999.90;999.90;;;4.10;99.90;;;;;;6161229;23;20721;-78
2022/02/20 07:46:25;;;;;;;1999.90;824.33;;;4.10;99.90;;;;;;6134249;23;20441;-78
2022/02/20 07:48:57;;;;;;;1999.90;732.60;;;4.10;99.90;;;;;;6134970;23;20447;-78
2022/02/20 07:51:29;;;;;;;1999.90;314.33;;;4.10;99.90;;;;;;6134850;23;20472;-78
2022/02/20 07:53:57;;;;;;;1999.90;999.90;;;4.10;99.90;;;;;;6132478;23;20446;-77
2022/02/20 07:56:25;;;;;;;1999.90;999.90;;;4.10;99.90;;;;;;6132954;23;20459;-77
2022/02/20 07:58:54;;;;;;;1999.90;999.90;;;4.10;99.90;;;;;;6132604;23;20495;-77
2022/02/20 08:01:23;;;;;;;1999.90;667.40;;;4.10;99.90;;;;;;6134322;23;20451;-77
2022/02/20 08:03:51;;;;;;;1570.50;418.23;;;4.10;99.90;;;;;;6135573;23;20940;-78
2022/02/20 08:06:21;;;;;;;1999.90;728.63;;;4.10;99.90;;;;;;6133958;23;20425;-78
2022/02/20 08:08:51;;;;;;;1999.90;999.90;;;4.20;99.90;;;;;;6136888;23;20756;-78
2022/02/20 08:11:21;;;;;;;1999.90;999.90;;;4.10;99.90;;;;;;6137840;23;20497;-78
2022/02/20 08:13:54;;;;;;;1999.90;516.20;;;4.10;99.90;;;;;;6139029;23;20406;-78
2022/02/20 08:16:25;;;;;;;1999.90;999.90;;;4.10;99.90;;;;;;6139769;23;20744;-78
2022/02/20 08:18:54;;;;;;;1999.90;999.90;;;4.10;99.90;;;;;;6139793;23;20904;-78
2022/02/20 08:21:22;;;;;;;1999.90;999.90;;;4.10;99.90;;;;;;6139785;23;20453;-78
2022/02/20 08:23:52;;;;;;;1999.90;999.90;;;4.10;99.90;;;;;;6141206;23;20438;-79
2022/02/20 08:26:21;;;;;;;1999.90;999.90;;;4.10;99.90;;;;;;6141169;23;20413;-78
2022/02/20 08:28:50;;;;;;;1999.90;633.93;;;4.10;99.90;;;;;;6144596;23;20451;-79
2022/02/20 08:31:18;;;;;;;1999.90;999.90;;;4.10;99.90;;;;;;6144747;23;20939;-79
2022/02/20 08:33:46;;;;;;;1999.90;999.90;;;4.10;99.90;;;;;;6140538;23;20458;-77
2022/02/20 08:36:16;;;;;;;1999.90;548.37;;;4.10;99.90;;;;;;6140237;23;20511;-79
2022/02/20 08:38:45;;;;;;;1999.90;999.90;;;4.10;99.90;;;;;;6144930;23;20422;-79
2022/02/20 08:41:14;;;;;;;1999.90;547.93;;;4.20;99.90;;;;;;6144948;23;20476;-79
2022/02/20 08:43:42;;;;;;;1999.90;709.07;;;4.20;99.90;;;;;;6143883;23;20416;-79
2022/02/20 08:46:11;;;;;;;1999.90;999.90;;;4.20;99.90;;;;;;6144449;23;20500;-80
2022/02/20 08:48:40;;;;;;;1999.90;999.90;;;4.20;99.90;;;;;;6145578;23;20447;-79
2022/02/20 08:51:09;;;;;;;1999.90;586.33;;;4.10;99.90;;;;;;6145481;23;20437;-80
2022/02/20 08:53:38;;;;;;;1999.90;999.90;;;4.30;99.90;;;;;;6145707;23;20416;-80
2022/02/20 08:56:07;;;;;;;1742.53;465.10;;;4.20;99.90;;;;;;6180935;23;20487;-80
2022/02/20 08:58:37;;;;;;;1999.90;688.20;;;4.20;99.90;;;;;;6144957;23;20443;-80
2022/02/20 09:01:06;;;;;;;1972.20;476.27;;;4.30;99.90;;;;;;6141917;23;20471;-80
2022/02/20 09:03:36;;;;;;;1999.90;533.07;;;4.30;99.90;;;;;;6138373;23;20431;-79
2022/02/20 09:06:04;;;;;;;1999.90;587.43;;;4.30;99.90;;;;;;6138323;23;20507;-80
2022/02/20 09:08:32;;;;;;;1999.90;999.90;;;4.30;99.90;;;;;;6138295;23;20468;-80
2022/02/20 09:11:01;;;;;;;1999.90;612.07;;;4.30;99.90;;;;;;6139299;23;20498;-79
2022/02/20 09:13:29;;;;;;;1999.90;491.97;;;4.30;99.90;;;;;;6140218;23;20450;-79
2022/02/20 09:15:59;;;;;;;1988.07;468.53;;;4.30;99.90;;;;;;6142891;23;20507;-81
2022/02/20 09:18:27;;;;;;;1999.90;553.57;;;4.40;99.90;;;;;;6142100;23;20511;-80
2022/02/20 09:20:55;;;;;;;1740.20;449.60;;;4.40;99.90;;;;;;6179013;23;20424;-81
2022/02/20 09:23:23;;;;;;;1999.90;548.07;;;4.50;99.90;;;;;;6142845;23;20448;-81
2022/02/20 09:25:52;;;;;;;1999.90;261.83;;;4.40;99.90;;;;;;6169344;23;20463;-80
2022/02/20 09:28:20;;;;;;;1999.90;465.83;;;4.50;99.90;;;;;;6141501;23;20463;-80
2022/02/20 09:30:48;;;;;;;1999.90;418.83;;;4.50;99.90;;;;;;6141829;23;20467;-80
2022/02/20 09:33:18;;;;;;;1999.90;348.13;;;4.50;99.90;;;;;;6139735;23;20771;-81
2022/02/20 09:35:46;;;;;;;1999.90;785.50;;;4.50;99.90;;;;;;6139217;23;20420;-80
2022/02/20 09:38:16;;;;;;;1999.90;478.57;;;4.60;99.90;;;;;;6141350;23;20422;-80
2022/02/20 09:40:45;;;;;;;668.60;139.13;;;4.60;99.90;;;;;;6141364;23;20435;-80
2022/02/20 09:43:14;;;;;;;989.03;207.00;;;4.70;99.90;;;;;;6142221;23;20507;-80
2022/02/20 09:45:46;;;;;;;629.87;166.40;;;4.70;99.90;;;;;;6177855;23;20396;-81
2022/02/20 09:48:16;;;;;;;1999.90;999.90;;;4.70;99.90;;;;;;6177271;23;20421;-80
2022/02/20 09:50:46;;;;;;;1615.57;310.73;;;4.80;99.90;;;;;;6140427;23;20443;-80
2022/02/20 09:53:14;;;;;;;829.30;210.33;;;4.80;99.90;;;;;;6140903;23;20413;-80
2022/02/20 09:55:49;;;;;;;1832.93;337.73;;;4.90;99.90;;;;;;6140932;23;20917;-80
2022/02/20 09:58:18;;;;;;;1074.57;204.27;;;4.90;99.90;;;;;;6141878;23;20436;-80
2022/02/20 10:00:52;;;;;;;525.37;137.67;;;5.00;99.90;;;;;;6140794;23;20440;-81
2022/02/20 10:03:35;;;;;;;280.23;94.70;;;5.00;99.90;;;;;;6167115;23;20407;-80
2022/02/20 10:06:14;;;;;;;1045.80;234.23;;;5.10;99.90;;;;;;6140141;23;20800;-80
2022/02/20 10:08:44;;;;;;;1487.93;266.13;;;5.10;99.90;;;;;;6138664;23;20483;-80
2022/02/20 10:11:21;;;;;;;367.37;143.03;;;5.10;99.90;;;;;;6139479;23;20440;-80
2022/02/20 10:13:52;;;;;;;350.93;136.67;;;5.20;99.90;;;;;;6140587;23;20971;-80
2022/02/20 10:16:23;;;;;;;114.27;57.00;;;5.20;99.90;;;;;;6140546;23;20401;-80
2022/02/20 10:19:02;;;;;;;163.93;102.97;;;5.30;99.90;;;;;;6176235;23;20381;-80
2022/02/20 10:21:50;;;;;;;154.53;88.27;;;5.30;99.90;;;;;;6176601;23;20452;-80
2022/02/20 10:24:24;;;;;;;231.20;47.20;;;5.40;99.90;;;;;;6176598;23;20852;-80
2022/02/20 10:27:08;;;;;;;120.13;28.17;;;5.40;99.90;;;;;;6176671;23;20385;-81
2022/02/20 10:30:25;;;;;;;237.40;46.83;;;5.50;99.90;;;;;;6170430;23;20408;-80
2022/02/20 10:33:10;;;;;;;158.40;47.17;;;5.60;99.90;;;;;;6143309;23;20412;-80
2022/02/20 10:35:50;;;;;;;162.60;42.57;;;5.70;99.90;;;;;;6142703;23;20408;-81
2022/02/20 10:38:22;;;;;;;147.63;36.67;;;5.70;99.90;;;;;;6167451;23;20393;-81
2022/02/20 10:40:55;;;;;;;231.23;39.50;;;5.80;99.90;;;;;;6143452;23;20472;-81
2022/02/20 10:43:27;;;;;;;196.37;38.13;;;5.80;99.90;;;;;;6144364;23;20422;-81
2022/02/20 10:46:07;;;;;;;121.27;23.40;;;5.90;99.90;;;;;;6147253;23;20419;-80
2022/02/20 10:48:57;;;;;;;105.50;22.73;;;6.00;99.90;;;;;;6173758;23;20433;-80
2022/02/20 11:18:02;;;;;;;171.23;33.87;;;6.80;99.90;;;;;;5863546;24;20409;-81
2022/02/20 11:20:32;;;;;;;178.47;31.17;;;6.90;99.90;;;;;;5991639;24;20193;-81
2022/02/20 11:23:06;;;;;;;173.53;30.37;;;6.90;99.90;;;;;;5991435;24;20426;-81
2022/02/20 11:25:35;;;;;;;150.20;30.30;;;7.00;99.90;;;;;;5991749;24;20504;-80
2022/02/20 11:28:05;;;;;;;138.77;27.17;;;7.10;99.90;;;;;;6001026;24;20441;-80
2022/02/20 11:30:35;;;;;;;159.07;22.93;;;7.10;99.90;;;;;;6002940;24;20438;-80
2022/02/20 11:33:08;;;;;;;258.70;44.70;;;7.20;99.90;;;;;;6101302;23;20435;-80
2022/02/20 11:35:42;;;;;;;189.70;28.13;;;7.30;99.90;;;;;;6141251;23;20416;-81
2022/02/20 11:38:13;;;;;;;234.67;31.17;;;7.40;99.90;;;;;;6168667;23;20392;-80
2022/02/20 11:40:59;;;;;;;107.20;27.43;;;7.50;99.90;;;;;;6142198;23;20435;-81
2022/02/20 11:43:43;;;;;;;187.23;31.57;;;7.60;99.90;;;;;;6177741;23;20393;-80
2022/02/20 11:46:15;;;;;;;280.50;32.47;;;7.70;99.90;;;;;;6142467;23;20418;-80
2022/02/20 11:49:30;;;;;;;173.13;27.40;;;7.80;99.90;;;;;;6142530;23;20438;-80
2022/02/20 11:52:05;;;;;;;204.70;27.93;;;7.90;99.90;;;;;;6142825;23;20543;-80
2022/02/20 11:54:36;;;;;;;197.13;30.57;;;8.00;99.90;;;;;;6143737;23;20408;-80
2022/02/20 11:57:25;;;;;;;313.87;37.83;;;8.10;99.90;;;;;;6142723;23;20417;-80
2022/02/20 12:00:18;;;;;;;300.23;39.70;;;8.20;99.90;;;;;;6141019;23;20454;-80
2022/02/20 12:03:07;;;;;;;265.27;30.23;;;8.30;99.90;;;;;;6108936;23;20490;-80
2022/02/20 12:05:38;;;;;;;267.30;38.03;;;8.40;99.90;;;;;;6113599;23;20420;-80
2022/02/20 12:08:08;;;;;;;316.73;48.70;;;8.50;99.90;;;;;;6113249;23;20444;-80
2022/02/20 12:10:39;;;;;;;324.67;43.97;;;8.50;99.90;;;;;;6113799;23;20429;-80
2022/02/20 12:13:32;;;;;;;346.27;44.80;;;8.60;99.90;;;;;;6114310;23;20448;-80
2022/02/20 12:16:22;;;;;;;320.47;41.27;;;8.70;99.90;;;;;;6115660;23;20421;-79
2022/02/20 12:19:15;;;;;;;288.37;33.57;;;8.80;99.90;;;;;;6141525;23;20393;-80
2022/02/20 12:22:05;;;;;;;229.73;41.10;;;8.90;99.90;;;;;;6114662;23;20440;-80
2022/02/20 12:24:48;;;;;;;320.20;45.10;;;9.00;99.90;;;;;;6150733;23;20388;-80
2022/02/20 12:27:22;;;;;;;318.80;55.73;;;9.10;99.90;;;;;;6140370;23;20401;-80
2022/02/20 12:29:52;;;;;;;374.10;72.57;;;9.20;99.90;;;;;;6112825;23;20443;-80
2022/02/20 12:32:24;;;;;;;390.50;59.60;;;9.20;99.90;;;;;;6139692;23;20434;-80
2022/02/20 12:35:01;;;;;;;353.43;52.63;;;9.30;99.90;;;;;;6113579;23;20831;-80
2022/02/20 12:37:33;;;;;;;427.73;80.67;;;9.30;99.90;;;;;;6113534;23;20889;-80
2022/02/20 12:40:06;;;;;;;330.47;53.73;;;9.40;99.90;;;;;;6140835;23;20393;-80
2022/02/20 12:42:39;;;;;;;449.07;78.70;;;9.40;99.90;;;;;;6114439;23;20480;-80
2022/02/20 12:45:15;;;;;;;346.60;65.57;;;9.40;99.90;;;;;;6112000;23;20413;-80
2022/02/20 12:47:47;;;;;;;355.60;74.30;;;9.50;99.90;;;;;;6110508;23;20413;-79
2022/02/20 12:50:17;;;;;;;338.87;62.60;;;9.50;99.90;;;;;;6110470;23;20441;-79
2022/02/20 12:52:47;;;;;;;474.23;83.00;;;9.50;99.90;;;;;;6113248;23;20445;-79
2022/02/20 12:55:17;;;;;;;460.27;63.27;;;9.60;99.90;;;;;;6140501;23;20413;-79
2022/02/20 12:57:48;;;;;;;365.77;69.47;;;9.60;99.90;;;;;;6151205;23;20448;-79
2022/02/20 13:00:20;;;;;;;392.17;81.70;;;9.60;99.90;;;;;;6121518;23;20455;-79
2022/02/20 13:02:51;;;;;;;341.47;76.17;;;9.60;99.90;;;;;;6145556;23;20476;-79
2022/02/20 13:05:28;;;;;;;471.60;59.20;;;9.60;99.90;;;;;;6144286;23;20420;-79
2022/02/20 13:07:59;;;;;;;452.40;98.27;;;9.60;99.90;;;;;;6144454;23;20415;-79
2022/02/20 13:10:30;;;;;;;466.37;106.17;;;9.70;99.90;;;;;;6145945;23;20443;-80
2022/02/20 13:13:04;;;;;;;430.57;87.63;;;9.70;99.90;;;;;;6146132;23;20415;-79
2022/02/20 13:15:44;;;;;;;356.90;74.67;;;9.60;99.90;;;;;;6146142;23;20494;-79
2022/02/20 13:18:16;;;;;;;426.63;94.20;;;9.60;99.90;;;;;;6171484;23;20456;-79
2022/02/20 13:20:50;;;;;;;329.87;64.07;;;9.60;99.90;;;;;;6145261;23;20487;-79
2022/02/20 13:23:28;;;;;;;342.70;66.63;;;9.70;99.90;;;;;;6170942;23;20392;-79
2022/02/20 13:26:08;;;;;;;397.93;58.03;;;9.70;99.90;;;;;;6145095;23;20416;-79
2022/02/20 13:28:39;;;;;;;306.47;49.90;;;9.70;99.90;;;;;;6145221;23;20414;-79
2022/02/20 13:31:10;;;;;;;344.70;44.03;;;9.70;99.90;;;;;;6144728;23;20254;-79
2022/02/20 13:33:43;;;;;;;437.90;64.10;;;9.70;99.90;;;;;;6181130;23;20409;-79